Terminal Aerodrome Forecast
Issued by NWS

Home | Current Version | Previous Version | Text Only | Print | Product List | Glossary On
Versions: 1 2 3 4 5 6 7 8 9 10 11 12 13 14 15 16 17 18 19 20 21 22 23 24
000
FTUS44 KCRP 212329
TAFLRD
TAF
KLRD 212329Z 2200/2224 14018G28KT P6SM BKN250
     FM220600 12010G18KT P6SM SCT025 OVC200
     FM220900 14009KT P6SM SCT020 OVC200 WS020/17040KT
      TEMPO 2209/2212 BKN020 OVC150
     FM221400 15010G15KT P6SM BKN035 OVC150
     FM221600 15015G25KT P6SM BKN035 OVC100
     FM222000 14018G28KT P6SM SCT035 BKN100=

USA.gov is the U.S. government's official web portal to all federal, state and local government web resources and services.